createdAt,value
2022-09-01T00:00:02.241Z,3.90
2022-09-01T00:02:50.931Z,3.35
2022-09-01T00:05:17.806Z,5.32
2022-09-01T00:07:45.117Z,3.30
2022-09-01T00:10:12.052Z,4.55
2022-09-01T00:12:39.098Z,4.30
2022-09-01T00:15:09.472Z,3.42
2022-09-01T00:17:36.443Z,4.28
2022-09-01T00:20:05.402Z,3.90
2022-09-01T00:22:33.833Z,5.05
2022-09-01T00:25:02.165Z,4.22
2022-09-01T00:27:31.039Z,4.68
2022-09-01T00:32:25.997Z,3.55
2022-09-01T00:34:52.918Z,4.13
2022-09-01T00:37:19.973Z,4.43
2022-09-01T00:39:46.769Z,3.63
2022-09-01T00:42:13.595Z,3.55
2022-09-01T00:44:40.642Z,3.72
2022-09-01T00:47:07.539Z,3.53
2022-09-01T00:49:45.663Z,3.88
2022-09-01T00:52:15.866Z,4.03
2022-09-01T00:54:53.730Z,3.65
2022-09-01T00:57:21.790Z,3.75
2022-09-01T01:00:17.660Z,3.90
2022-09-01T01:02:45.806Z,3.80
2022-09-01T01:05:15.208Z,3.15
2022-09-01T01:07:47.290Z,3.58
2022-09-01T01:10:17.162Z,3.08
2022-09-01T01:12:45.340Z,3.78
2022-09-01T01:15:13.924Z,3.72
2022-09-01T01:17:41.193Z,3.42
2022-09-01T01:20:28.247Z,3.22
2022-09-01T01:23:21.696Z,3.83
2022-09-01T01:25:50.366Z,3.80
2022-09-01T01:28:19.287Z,3.70
2022-09-01T01:30:54.991Z,3.60
2022-09-01T01:33:25.424Z,3.45
2022-09-01T01:35:53.921Z,3.65
2022-09-01T01:38:23.008Z,4.00
2022-09-01T01:40:51.933Z,3.67
2022-09-01T01:43:21.972Z,3.67
2022-09-01T01:45:56.760Z,3.50
2022-09-01T01:48:24.643Z,3.38
2022-09-01T01:50:55.018Z,3.40
2022-09-01T01:53:22.584Z,3.22
2022-09-01T01:55:50.195Z,3.30
2022-09-01T01:58:19.923Z,4.07
2022-09-01T02:00:49.192Z,2.97
2022-09-01T02:03:19.971Z,3.20
2022-09-01T02:05:49.171Z,4.03
2022-09-01T02:08:22.809Z,3.17
2022-09-01T02:10:52.201Z,3.10
2022-09-01T02:13:26.151Z,3.28
2022-09-01T02:15:55.917Z,3.30
2022-09-01T02:18:28.056Z,3.80
2022-09-01T02:20:55.511Z,3.50
2022-09-01T02:23:25.869Z,3.38
2022-09-01T02:28:45.884Z,3.50
2022-09-01T02:31:12.877Z,3.60
2022-09-01T02:33:41.915Z,3.83
2022-09-01T02:36:13.984Z,4.18
2022-09-01T02:38:46.597Z,3.30
2022-09-01T02:41:15.519Z,3.67
2022-09-01T02:43:46.293Z,3.97
2022-09-01T02:49:19.885Z,4.13
2022-09-01T02:51:54.032Z,3.55
2022-09-01T02:54:22.907Z,3.88
2022-09-01T02:56:51.155Z,3.70
2022-09-01T02:59:21.785Z,3.97
2022-09-01T03:01:54.135Z,3.78
2022-09-01T03:04:22.561Z,3.50
2022-09-01T03:06:50.984Z,4.00
2022-09-01T03:09:19.477Z,3.77
2022-09-01T03:11:50.043Z,3.67
2022-09-01T03:14:17.703Z,3.67
2022-09-01T03:16:45.356Z,4.20
2022-09-01T03:19:13.084Z,4.30
2022-09-01T03:21:42.672Z,4.32
2022-09-01T03:24:13.022Z,4.68
2022-09-01T03:26:40.609Z,4.10
2022-09-01T03:29:08.738Z,3.75
2022-09-01T03:31:36.715Z,4.45
2022-09-01T03:34:06.107Z,3.83
2022-09-01T03:36:33.537Z,4.00
2022-09-01T03:39:01.298Z,3.83
2022-09-01T03:41:30.979Z,3.90
2022-09-01T03:43:58.966Z,3.53
2022-09-01T03:46:35.666Z,4.03
2022-09-01T03:49:07.531Z,3.53
2022-09-01T03:51:35.086Z,4.60
2022-09-01T03:54:01.927Z,3.97
2022-09-01T03:56:29.761Z,4.22
2022-09-01T03:58:58.943Z,3.92
2022-09-01T04:01:27.850Z,3.97
2022-09-01T04:03:55.051Z,3.35
2022-09-01T04:06:24.409Z,4.68
2022-09-01T04:08:56.943Z,3.80
2022-09-01T04:11:24.288Z,4.00
2022-09-01T04:13:52.385Z,3.70
2022-09-01T04:16:40.685Z,4.40
2022-09-01T04:19:29.082Z,3.97
2022-09-01T04:21:59.893Z,3.55
2022-09-01T04:24:31.191Z,3.92
2022-09-01T04:27:01.838Z,3.83
2022-09-01T04:29:29.985Z,3.47
2022-09-01T04:32:02.665Z,3.17
2022-09-01T04:34:37.443Z,2.95
2022-09-01T04:37:13.307Z,3.80
2022-09-01T04:39:51.423Z,3.25
2022-09-01T04:42:23.686Z,2.85
2022-09-01T04:44:51.915Z,3.40
2022-09-01T04:47:19.880Z,3.10
2022-09-01T04:49:48.376Z,3.88
2022-09-01T04:52:15.549Z,2.72
2022-09-01T04:54:44.874Z,3.20
2022-09-01T04:57:11.717Z,2.95
2022-09-01T04:59:38.759Z,3.05
2022-09-01T05:02:09.654Z,2.90
2022-09-01T05:04:37.523Z,3.00
2022-09-01T05:07:05.989Z,3.03
2022-09-01T05:09:38.120Z,2.97
2022-09-01T05:12:15.482Z,3.38
2022-09-01T05:14:48.727Z,3.10
2022-09-01T05:17:17.343Z,3.15
2022-09-01T05:19:47.867Z,3.63
2022-09-01T05:22:15.793Z,3.15
2022-09-01T05:24:43.045Z,3.00
2022-09-01T05:27:12.388Z,2.97
2022-09-01T05:29:41.686Z,2.83
2022-09-01T05:32:12.697Z,2.97
2022-09-01T05:34:42.506Z,2.97
2022-09-01T05:37:13.196Z,3.30
2022-09-01T05:39:40.348Z,3.60
2022-09-01T05:42:08.545Z,3.15
2022-09-01T05:44:44.543Z,3.77
2022-09-01T05:47:14.853Z,3.85
2022-09-01T05:49:49.888Z,4.10
2022-09-01T05:52:16.819Z,3.42
2022-09-01T05:54:44.202Z,4.07
2022-09-01T05:57:30.744Z,3.42
2022-09-01T05:59:57.990Z,3.45
2022-09-01T06:02:27.365Z,3.35
2022-09-01T06:04:57.027Z,3.13
2022-09-01T06:07:26.862Z,3.80
2022-09-01T06:09:54.019Z,13.88
2022-09-01T06:12:23.454Z,3.80
2022-09-01T06:14:53.695Z,3.25
2022-09-01T06:17:24.984Z,7.47
2022-09-01T06:19:56.753Z,4.78
2022-09-01T06:22:26.261Z,3.42
2022-09-01T06:27:29.540Z,4.05
2022-09-01T06:29:56.520Z,3.60
2022-09-01T06:32:26.096Z,3.47
2022-09-01T06:34:53.445Z,3.42
2022-09-01T06:37:23.149Z,3.83
2022-09-01T06:39:51.007Z,3.15
2022-09-01T06:42:19.625Z,3.58
2022-09-01T06:44:46.489Z,3.60
2022-09-01T06:47:13.855Z,3.25
2022-09-01T06:49:41.059Z,4.28
2022-09-01T06:52:08.614Z,3.45
2022-09-01T06:54:39.264Z,4.15
2022-09-01T06:59:54.308Z,3.47
2022-09-01T07:02:24.479Z,6.97
2022-09-01T07:04:54.059Z,7.55
2022-09-01T07:10:25.442Z,3.50
2022-09-01T07:13:10.871Z,3.70
2022-09-01T07:18:31.062Z,12.15
2022-09-01T07:21:36.267Z,3.80
2022-09-01T07:24:08.697Z,3.50
2022-09-01T07:26:35.816Z,3.55
2022-09-01T07:29:07.147Z,3.80
2022-09-01T07:32:43.436Z,4.00
2022-09-01T07:34:38.753Z,4.00
2022-09-01T07:39:55.470Z,3.27
2022-09-01T07:45:29.252Z,2.78
2022-09-01T07:47:59.562Z,2.72
2022-09-01T07:50:40.208Z,2.70
2022-09-01T07:53:09.580Z,2.60
2022-09-01T07:55:44.057Z,3.55
2022-09-01T07:58:12.255Z,3.05
2022-09-01T08:00:40.662Z,2.88
2022-09-01T08:03:07.523Z,2.53
2022-09-01T08:05:34.759Z,2.38
2022-09-01T08:08:01.676Z,2.75
2022-09-01T08:10:28.726Z,2.90
2022-09-01T08:12:56.798Z,2.30
2022-09-01T08:15:41.284Z,4.22
2022-09-01T08:18:14.229Z,9.82
2022-09-01T08:20:45.676Z,2.40
2022-09-01T08:23:19.109Z,2.40
2022-09-01T08:25:47.469Z,2.40
2022-09-01T08:28:15.849Z,2.65
2022-09-01T08:30:51.243Z,2.25
2022-09-01T08:33:19.990Z,2.30
2022-09-01T08:35:49.456Z,2.08
2022-09-01T08:38:16.586Z,2.08
2022-09-01T08:40:56.411Z,2.20
2022-09-01T08:43:38.011Z,2.20
2022-09-01T08:46:30.610Z,2.45
2022-09-01T08:49:25.694Z,1.90
2022-09-01T08:52:03.219Z,1.40
2022-09-01T08:54:41.094Z,1.80
2022-09-01T08:57:24.185Z,1.77
2022-09-01T08:59:52.580Z,1.63
2022-09-01T09:02:47.869Z,2.90
2022-09-01T09:05:30.057Z,1.77
2022-09-01T09:08:10.959Z,1.60
2022-09-01T09:11:01.364Z,1.73
2022-09-01T09:13:56.809Z,2.15
2022-09-01T09:16:56.763Z,1.67
2022-09-01T09:19:31.203Z,2.08
2022-09-01T09:22:00.787Z,1.67
2022-09-01T10:34:01.088Z,1.30
2022-09-01T10:36:29.257Z,1.50
2022-09-01T10:39:04.785Z,1.00
2022-09-01T10:41:42.618Z,0.90
2022-09-01T10:44:19.351Z,1.10
2022-09-01T10:46:51.187Z,1.27
2022-09-01T10:49:25.163Z,1.40
2022-09-01T10:52:02.584Z,1.27
2022-09-01T10:54:55.856Z,1.30
2022-09-01T10:57:42.905Z,1.33
2022-09-01T11:00:36.553Z,1.00
2022-09-01T11:06:17.539Z,1.30
2022-09-01T11:09:01.037Z,1.25
2022-09-01T11:12:03.424Z,0.88
2022-09-01T11:14:35.893Z,1.20
2022-09-01T11:17:25.561Z,1.10
2022-09-01T11:20:27.272Z,0.98
2022-09-01T11:22:56.957Z,1.00
2022-09-01T11:25:45.207Z,1.30
2022-09-01T11:28:15.090Z,0.98
2022-09-01T11:31:04.100Z,0.70
2022-09-01T11:33:34.217Z,1.20
2022-09-01T11:36:03.040Z,0.98
2022-09-01T11:38:41.955Z,1.10
2022-09-01T11:41:09.175Z,0.95
2022-09-01T11:43:36.687Z,0.85
2022-09-01T11:46:16.344Z,0.90
2022-09-01T11:48:52.095Z,0.95
2022-09-01T11:51:21.533Z,1.08
2022-09-01T11:53:50.695Z,0.80
2022-09-01T11:56:24.876Z,1.00
2022-09-01T11:58:51.995Z,0.80
2022-09-01T12:01:22.178Z,0.70
2022-09-01T12:03:53.230Z,0.68
2022-09-01T12:06:27.287Z,0.63
2022-09-01T12:08:57.151Z,0.70
2022-09-01T12:11:31.546Z,0.75
2022-09-01T12:14:03.407Z,0.63
2022-09-01T12:16:35.840Z,0.70
2022-09-01T12:19:04.320Z,0.82
2022-09-01T12:21:43.159Z,0.80
2022-09-01T12:24:22.147Z,0.82
2022-09-01T12:26:52.009Z,1.80
2022-09-01T12:29:19.594Z,1.50
2022-09-01T12:31:50.549Z,0.90
2022-09-01T12:34:28.455Z,0.90
2022-09-01T12:37:07.884Z,0.93
2022-09-01T12:39:46.727Z,0.85
2022-09-01T12:42:19.847Z,0.65
2022-09-01T12:45:02.855Z,0.70
2022-09-01T12:47:50.250Z,0.80
2022-09-01T12:50:17.434Z,0.88
2022-09-01T12:52:52.382Z,0.70
2022-09-01T12:58:10.208Z,0.75
2022-09-01T13:00:56.316Z,0.70
2022-09-01T13:03:23.791Z,0.85
2022-09-01T13:05:53.740Z,1.00
2022-09-01T13:08:27.068Z,1.00
2022-09-01T13:11:04.576Z,1.08
2022-09-01T13:13:31.787Z,0.85
2022-09-01T13:16:08.624Z,0.80
2022-09-01T13:19:10.326Z,0.85
2022-09-01T13:21:22.692Z,0.65
2022-09-01T13:23:50.765Z,1.10
2022-09-01T13:26:17.955Z,0.90
2022-09-01T13:28:46.148Z,1.02
2022-09-01T13:31:29.900Z,0.30
2022-09-01T13:34:21.871Z,0.90
2022-09-01T13:36:51.595Z,0.60
2022-09-01T13:39:21.021Z,0.70
2022-09-01T13:41:49.429Z,0.70
2022-09-01T13:44:17.345Z,0.70
2022-09-01T13:47:28.545Z,0.77
2022-09-01T13:52:21.771Z,1.95
2022-09-01T13:54:48.645Z,1.48
2022-09-01T13:57:16.715Z,1.30
2022-09-01T13:59:44.848Z,1.20
2022-09-01T14:02:11.702Z,0.75
2022-09-01T14:04:38.718Z,0.80
2022-09-01T14:07:06.607Z,0.70
2022-09-01T14:09:35.520Z,1.17
2022-09-01T14:12:02.908Z,0.90
2022-09-01T14:17:16.917Z,0.70
2022-09-01T14:19:44.247Z,0.95
2022-09-01T14:22:11.097Z,0.90
2022-09-01T14:24:40.825Z,1.58
2022-09-01T14:27:08.199Z,2.28
2022-09-01T14:32:03.907Z,1.45
2022-09-01T14:34:31.139Z,1.00
2022-09-01T14:36:58.158Z,0.82
2022-09-01T14:39:25.162Z,0.80
2022-09-01T14:41:52.284Z,0.70
2022-09-01T14:44:19.104Z,0.77
2022-09-01T14:46:46.873Z,0.85
2022-09-01T14:49:19.046Z,1.85
2022-09-01T14:54:37.871Z,0.90
2022-09-01T14:59:53.260Z,0.43
2022-09-01T15:02:20.186Z,0.68
2022-09-01T15:04:47.119Z,0.60
2022-09-01T15:07:15.380Z,0.80
2022-09-01T15:09:42.688Z,0.82
2022-09-01T15:12:09.767Z,0.70
2022-09-01T15:14:37.822Z,0.80
2022-09-01T15:17:05.703Z,0.80
2022-09-01T15:19:33.030Z,0.80
2022-09-01T15:22:01.025Z,2.28
2022-09-01T15:24:27.888Z,1.05
2022-09-01T15:26:55.081Z,0.73
2022-09-01T15:29:22.220Z,0.73
2022-09-01T15:31:49.508Z,0.70
2022-09-01T15:34:19.029Z,0.77
2022-09-01T15:36:46.181Z,3.10
2022-09-01T15:39:13.215Z,1.10
2022-09-01T15:41:40.282Z,0.93
2022-09-01T15:44:08.200Z,0.65
2022-09-01T15:46:39.004Z,1.20
2022-09-01T15:49:08.646Z,0.80
2022-09-01T15:51:43.570Z,0.80
2022-09-01T15:54:16.707Z,0.60
2022-09-01T15:56:45.097Z,0.82
2022-09-01T15:59:12.871Z,0.70
2022-09-01T16:01:43.932Z,0.75
2022-09-01T16:04:19.105Z,0.93
2022-09-01T16:06:49.568Z,1.80
2022-09-01T16:09:18.553Z,1.70
2022-09-01T16:11:45.534Z,1.23
2022-09-01T16:14:12.796Z,0.77
2022-09-01T16:16:44.357Z,0.90
2022-09-01T16:19:17.023Z,0.75
2022-09-01T16:21:53.349Z,1.10
2022-09-01T16:24:20.454Z,1.00
2022-09-01T16:26:48.456Z,1.23
2022-09-01T16:29:24.497Z,1.20
2022-09-01T16:31:55.700Z,1.30
2022-09-01T16:34:27.680Z,1.15
2022-09-01T16:37:10.347Z,1.35
2022-09-01T16:39:50.946Z,1.70
2022-09-01T16:42:37.781Z,1.00
2022-09-01T16:45:12.104Z,2.08
2022-09-01T16:48:24.416Z,1.40
2022-09-01T16:51:06.720Z,1.27
2022-09-01T16:54:12.307Z,1.20
2022-09-01T16:57:08.306Z,2.15
2022-09-01T16:59:55.686Z,3.17
2022-09-01T17:03:17.029Z,2.70
2022-09-01T17:05:55.705Z,2.72
2022-09-01T17:08:29.622Z,2.30
2022-09-01T17:11:24.232Z,3.95
2022-09-01T17:13:52.217Z,3.60
2022-09-01T17:16:29.935Z,4.97
2022-09-01T17:19:04.909Z,5.38
2022-09-01T17:21:53.039Z,4.30
2022-09-01T17:24:32.130Z,3.67
2022-09-01T17:27:07.792Z,2.85
2022-09-01T17:29:45.036Z,3.85
2022-09-01T17:32:34.823Z,3.58
2022-09-01T17:35:07.819Z,4.38
2022-09-01T17:37:58.300Z,4.43
2022-09-01T17:40:46.082Z,4.97
2022-09-01T17:43:45.742Z,4.35
2022-09-01T17:46:38.799Z,4.40
2022-09-01T17:49:43.513Z,2.50
2022-09-01T17:52:20.659Z,2.55
2022-09-01T17:55:07.255Z,6.45
2022-09-01T17:57:44.950Z,18.60
2022-09-01T18:00:26.368Z,24.75
2022-09-01T18:03:14.924Z,25.27
2022-09-01T18:06:26.677Z,14.25
2022-09-01T18:08:58.170Z,25.38
2022-09-01T18:11:46.476Z,22.80
2022-09-01T18:14:16.894Z,18.48
2022-09-01T18:17:10.605Z,15.32
2022-09-01T18:19:41.082Z,17.88
2022-09-01T18:22:14.405Z,15.68
2022-09-01T18:24:54.462Z,17.85
2022-09-01T18:27:24.252Z,19.98
2022-09-01T18:29:52.940Z,16.90
2022-09-01T18:32:28.716Z,16.05
2022-09-01T18:35:08.428Z,17.67
2022-09-01T18:37:47.545Z,19.02
2022-09-01T18:43:21.524Z,20.73
2022-09-01T18:45:55.961Z,14.02
2022-09-01T18:48:25.915Z,13.50
2022-09-01T18:51:16.846Z,13.82
2022-09-01T18:54:06.221Z,11.88
2022-09-01T18:56:55.022Z,10.40
2022-09-01T18:59:44.148Z,9.35
2022-09-01T19:04:42.849Z,12.55
2022-09-01T19:07:22.095Z,14.03
2022-09-01T19:10:02.258Z,13.23
2022-09-01T19:13:21.243Z,10.75
2022-09-01T19:18:52.976Z,7.20
2022-09-01T19:21:32.292Z,7.53
2022-09-01T19:24:20.902Z,6.97
2022-09-01T19:26:51.897Z,8.10
2022-09-01T19:29:24.011Z,9.27
2022-09-01T19:31:59.835Z,9.57
2022-09-01T19:34:35.430Z,9.25
2022-09-01T19:37:04.079Z,8.93
2022-09-01T19:39:41.480Z,9.03
2022-09-01T19:42:21.007Z,8.57
2022-09-01T19:47:51.303Z,9.35
2022-09-01T19:50:37.427Z,8.15
2022-09-01T19:53:32.281Z,8.02
2022-09-01T19:56:27.566Z,7.80
2022-09-01T19:59:11.676Z,9.07
2022-09-01T20:01:46.345Z,8.07
2022-09-01T20:04:24.391Z,6.50
2022-09-01T20:06:57.816Z,6.90
2022-09-01T20:09:40.378Z,7.43
2022-09-01T20:12:16.228Z,7.97
2022-09-01T20:15:10.994Z,9.40
2022-09-01T20:17:52.726Z,6.57
2022-09-01T20:20:25.676Z,5.87
2022-09-01T20:23:04.321Z,5.50
2022-09-01T20:25:41.415Z,5.07
2022-09-01T20:28:29.248Z,4.80
2022-09-01T20:31:05.425Z,5.03
2022-09-01T20:33:45.301Z,6.43
2022-09-01T20:36:31.425Z,5.47
2022-09-01T20:39:29.019Z,5.30
2022-09-01T20:42:05.043Z,5.30
2022-09-01T20:44:43.637Z,4.97
2022-09-01T20:47:11.994Z,5.95
2022-09-01T20:49:40.040Z,6.53
2022-09-01T20:52:44.419Z,9.27
2022-09-01T20:55:30.491Z,8.23
2022-09-01T20:58:23.347Z,8.87
2022-09-01T21:01:07.463Z,7.73
2022-09-01T21:03:56.441Z,7.97
2022-09-01T21:06:29.428Z,9.52
2022-09-01T21:09:12.318Z,9.63
2022-09-01T21:12:03.448Z,10.60
2022-09-01T21:14:39.458Z,9.53
2022-09-01T21:17:23.769Z,9.27
2022-09-01T21:20:35.465Z,9.60
2022-09-01T21:23:03.768Z,9.43
2022-09-01T21:25:34.155Z,10.70
2022-09-01T21:28:04.567Z,8.70
2022-09-01T21:30:34.199Z,9.53
2022-09-01T21:33:01.759Z,10.17
2022-09-01T21:35:28.678Z,9.97
2022-09-01T21:37:55.779Z,9.40
2022-09-01T21:40:25.260Z,8.73
2022-09-01T21:42:58.714Z,12.10
2022-09-01T21:45:25.977Z,9.30
2022-09-01T21:47:53.716Z,9.73
2022-09-01T21:50:23.119Z,8.33
2022-09-01T21:52:50.708Z,9.70
2022-09-01T21:55:22.518Z,9.43
2022-09-01T21:57:50.759Z,9.53
2022-09-01T22:00:27.562Z,10.07
2022-09-01T22:02:57.701Z,9.03
2022-09-01T22:05:26.335Z,9.97
2022-09-01T22:07:56.112Z,10.10
2022-09-01T22:10:26.104Z,9.43
2022-09-01T22:12:53.890Z,9.33
2022-09-01T22:15:23.744Z,9.47
2022-09-01T22:17:51.744Z,9.17
2022-09-01T22:20:22.488Z,8.53
2022-09-01T22:22:50.576Z,9.00
2022-09-01T22:25:23.899Z,8.77
2022-09-01T22:27:51.336Z,8.00
2022-09-01T22:30:19.333Z,8.37
2022-09-01T22:32:47.600Z,7.83
2022-09-01T22:35:16.464Z,8.65
2022-09-01T22:37:43.753Z,7.00
2022-09-01T22:40:11.885Z,7.87
2022-09-01T22:42:39.490Z,8.27
2022-09-01T22:45:07.871Z,7.60
2022-09-01T22:47:35.322Z,8.20
2022-09-01T22:50:08.059Z,9.67
2022-09-01T22:55:03.991Z,8.73
2022-09-01T22:57:32.239Z,8.77
2022-09-01T22:59:59.220Z,8.13
2022-09-01T23:02:27.293Z,7.03
2022-09-01T23:04:54.586Z,8.65
2022-09-01T23:07:21.399Z,6.57
2022-09-01T23:09:48.189Z,7.67
2022-09-01T23:12:15.356Z,7.33
2022-09-01T23:14:42.166Z,7.30
2022-09-01T23:17:09.315Z,7.57
2022-09-01T23:19:36.315Z,7.17
2022-09-01T23:22:03.365Z,7.10
2022-09-01T23:24:30.357Z,7.40
2022-09-01T23:26:57.877Z,6.17
2022-09-01T23:29:25.457Z,6.23
2022-09-01T23:31:52.773Z,6.23
2022-09-01T23:34:19.872Z,6.17
2022-09-01T23:36:46.868Z,5.30
2022-09-01T23:39:13.819Z,5.37
2022-09-01T23:41:40.927Z,5.30
2022-09-01T23:44:09.772Z,5.47
2022-09-01T23:46:41.969Z,5.97
2022-09-01T23:49:10.116Z,5.73
2022-09-01T23:51:37.050Z,5.37
2022-09-01T23:54:04.113Z,5.50
2022-09-01T23:56:31.655Z,4.50
2022-09-01T23:59:00.388Z,5.47
